Time;durP1;ratioP1;P1;durP2;ratioP2;P2;SDS_P1;SDS_P2;PMS_P1;PMS_P2;Temp;Humidity;BMP_temperature;BMP_pressure;BME280_temperature;BME280_humidity;BME280_pressure;Samples;Min_cycle;Max_cycle;Signal;HPM_P1;HPM_P2
2022/09/16 00:02:01;;;;;;;;;;;;;;;19.50;60.23;98822.59;4354668;32;20351;-94
2022/09/16 00:04:29;;;;;;;;;;;;;;;19.36;60.22;98822.91;4370403;32;19968;-94
2022/09/16 00:06:56;;;;;;;;;;;;;;;19.42;60.23;98828.53;4373395;32;20002;-94
2022/09/16 00:09:22;;;;;;;;;;;;;;;19.29;60.22;98823.41;4353396;32;19983;-94
2022/09/16 00:15:09;;;;;;;;;;;;;;;19.31;60.22;98833.84;4349240;33;19979;-94
2022/09/16 00:17:37;;;;;;;;;;;;;;;19.40;60.23;98846.28;4332559;32;20008;-94
2022/09/16 00:21:11;;;;;;;;;;;;;;;19.31;60.23;98855.78;4359417;32;20696;-93
2022/09/16 00:23:17;;;;;;;;;;;;;;;19.09;60.21;98847.09;4354737;32;19983;-94
2022/09/16 00:25:42;;;;;;;;;;;;;;;19.12;60.21;98834.50;4364521;32;20014;-95
2022/09/16 00:28:08;;;;;;;;;;;;;;;19.16;60.21;98840.38;4365019;32;20034;-94
2022/09/16 00:30:33;;;;;;;;;;;;;;;19.30;60.22;98840.09;4365262;32;20309;-95
2022/09/16 00:33:08;;;;;;;;;;;;;;;19.19;60.22;98833.06;4366809;32;19975;-96
2022/09/16 00:35:33;;;;;;;;;;;;;;;19.18;60.22;98843.75;4353725;32;20639;-96
2022/09/16 00:37:59;;;;;;;;;;;;;;;19.22;60.22;98846.00;4355569;32;19979;-96
2022/09/16 00:40:27;;;;;;;;;;;;;;;19.11;60.21;98855.72;4369144;32;19982;-96
2022/09/16 00:42:53;;;;;;;;;;;;;;;18.93;60.21;98863.34;4356926;32;20337;-95
2022/09/16 00:45:21;;;;;;;;;;;;;;;18.87;60.20;98869.94;4353824;32;19991;-96
2022/09/16 00:48:33;;;;;;;;;;;;;;;18.79;60.20;98858.34;4366666;32;20716;-96
2022/09/16 00:51:14;;;;;;;;;;;;;;;;;;;;;
2022/09/16 00:53:41;;;;;;;;;;;;;;;18.55;60.19;98888.28;4322904;33;35725;-94
2022/09/16 00:56:10;;;;;;;;;;;;;;;18.45;60.18;98875.94;4321887;33;19995;-95
2022/09/16 00:58:38;;;;;;;;;;;;;;;18.48;60.18;98866.00;4322221;33;20045;-93
2022/09/16 01:01:11;;;;;;;;;;;;;;;18.31;60.17;98861.22;4321882;33;19992;-93
2022/09/16 01:03:42;;;;;;;;;;;;;;;18.32;60.18;98862.88;4322163;33;20031;-93
2022/09/16 01:06:19;;;;;;;;;;;;;;;18.31;60.17;98855.94;4322243;33;20131;-94
2022/09/16 01:08:47;;;;;;;;;;;;;;;18.23;60.17;98856.56;4337914;32;19995;-94
2022/09/16 01:11:12;;;;;;;;;;;;;;;18.20;60.16;98862.03;4364970;32;19994;-95
2022/09/16 01:13:37;;;;;;;;;;;;;;;18.22;60.16;98862.78;4364840;32;19979;-94
2022/09/16 01:16:08;;;;;;;;;;;;;;;18.13;60.16;98871.38;4364944;32;20261;-94
2022/09/16 01:18:36;;;;;;;;;;;;;;;18.09;60.17;98873.41;4365089;32;20010;-94
2022/09/16 01:24:40;;;;;;;;;;;;;;;18.07;60.16;98885.00;4366906;32;19976;-94
2022/09/16 01:27:12;;;;;;;;;;;;;;;18.02;60.16;98881.91;4365996;32;20018;-95
2022/09/16 01:29:57;;;;;;;;;;;;;;;18.05;60.16;98889.56;4365679;32;20651;-94
2022/09/16 01:32:26;;;;;;;;;;;;;;;18.08;60.15;98891.97;4352013;33;19987;-94
2022/09/16 01:35:08;;;;;;;;;;;;;;;18.09;60.16;98883.09;4365506;32;19995;-94
2022/09/16 01:37:49;;;;;;;;;;;;;;;18.12;60.16;98879.38;4366670;32;20002;-95
2022/09/16 01:40:46;;;;;;;;;;;;;;;18.04;60.16;98887.87;4365108;32;20601;-93
2022/09/16 01:43:37;;;;;;;;;;;;;;;17.90;60.15;98885.44;4354998;32;19991;-95
2022/09/16 01:46:38;;;;;;;;;;;;;;;;;;;;;
2022/09/16 01:55:23;;;;;;;;;;;;;;;17.86;60.16;98876.09;4366084;32;20035;-95
2022/09/16 01:58:21;;;;;;;;;;;;;;;;;;;;;
2022/09/16 02:00:49;;;;;;;;;;;;;;;17.95;60.15;98881.50;4360088;32;36818;-94
2022/09/16 02:03:16;;;;;;;;;;;;;;;17.85;60.14;98869.16;4351954;32;20171;-95
2022/09/16 02:05:52;;;;;;;;;;;;;;;17.89;60.15;98873.25;4364239;32;19994;-95
2022/09/16 02:08:19;;;;;;;;;;;;;;;17.99;60.15;98875.06;4363749;32;19979;-95
2022/09/16 02:10:53;;;;;;;;;;;;;;;17.98;60.15;98881.31;4364505;32;19999;-95
2022/09/16 02:13:34;;;;;;;;;;;;;;;17.97;60.15;98879.59;4365012;32;20011;-96
2022/09/16 02:16:28;;;;;;;;;;;;;;;;;;;;;
2022/09/16 02:19:00;;;;;;;;;;;;;;;17.97;60.15;98879.59;4364449;32;35787;-95
2022/09/16 02:21:26;;;;;;;;;;;;;;;17.99;60.15;98890.03;4364237;32;19991;-93
2022/09/16 02:23:53;;;;;;;;;;;;;;;17.76;60.14;98884.72;4351089;32;19991;-92
2022/09/16 02:26:19;;;;;;;;;;;;;;;18.04;60.16;98899.25;4363731;32;19974;-93
2022/09/16 02:28:45;;;;;;;;;;;;;;;17.96;60.15;98896.34;4363514;32;20025;-94
2022/09/16 02:31:10;;;;;;;;;;;;;;;18.02;60.16;98895.91;4363559;32;19979;-92
2022/09/16 02:33:38;;;;;;;;;;;;;;;18.06;60.16;98902.59;4363665;32;19991;-93
2022/09/16 02:36:43;;;;;;;;;;;;;;;;;;;;;
2022/09/16 02:42:32;;;;;;;;;;;;;;;17.97;60.15;98908.56;4365488;32;19967;-93
2022/09/16 02:45:16;;;;;;;;;;;;;;;;;;;;;
2022/09/16 02:48:00;;;;;;;;;;;;;;;18.22;60.16;98915.47;4363598;32;36977;-95
2022/09/16 02:50:27;;;;;;;;;;;;;;;18.17;60.17;98914.09;4364402;32;19947;-94
2022/09/16 02:53:35;;;;;;;;;;;;;;;;;;;;;
2022/09/16 02:56:14;;;;;;;;;;;;;;;18.01;60.16;98920.56;4362673;32;34906;-94
2022/09/16 02:58:58;;;;;;;;;;;;;;;17.99;60.15;98917.22;4364517;32;19989;-95
2022/09/16 03:01:33;;;;;;;;;;;;;;;17.96;60.15;98914.78;4365215;32;19971;-95
2022/09/16 03:04:00;;;;;;;;;;;;;;;17.90;60.15;98907.34;4366626;32;19960;-95
2022/09/16 03:06:34;;;;;;;;;;;;;;;17.79;60.15;98910.81;4354805;32;20026;-95
2022/09/16 03:25:02;;;;;;;;;;;;;;;18.08;60.15;98929.66;4327574;33;20112;-94
2022/09/16 03:31:17;;;;;;;;;;;;;;;;;;;;;
2022/09/16 03:34:18;;;;;;;;;;;;;;;;;;;;;
2022/09/16 03:36:44;;;;;;;;;;;;;;;17.91;60.15;98923.97;4365851;32;35709;-94
2022/09/16 03:39:31;;;;;;;;;;;;;;;17.98;60.15;98920.78;4365676;32;20009;-95
2022/09/16 03:51:32;;;;;;;;;;;;;;;17.54;60.13;98944.28;4235272;33;20380;-93
2022/09/16 03:53:57;;;;;;;;;;;;;;;17.84;60.14;98942.03;4350964;32;20011;-94
2022/09/16 03:56:23;;;;;;;;;;;;;;;17.82;60.15;98935.22;4352702;32;20059;-94
2022/09/16 03:58:48;;;;;;;;;;;;;;;17.87;60.16;98935.72;4352795;32;20015;-96
2022/09/16 04:01:13;;;;;;;;;;;;;;;17.91;60.15;98940.63;4352360;32;20336;-90
2022/09/16 04:03:39;;;;;;;;;;;;;;;17.61;60.13;98945.50;4352214;32;20015;-93
2022/09/16 04:06:10;;;;;;;;;;;;;;;17.75;60.14;98942.75;4365261;32;20390;-95
2022/09/16 04:08:43;;;;;;;;;;;;;;;17.69;60.13;98941.37;4365673;32;19979;-95
2022/09/16 04:22:57;;;;;;;;;;;;;;;;;;;;;
2022/09/16 04:35:25;;;;;;;;;;;;;;;17.92;60.15;98946.72;4293715;33;20013;-94
2022/09/16 04:38:01;;;;;;;;;;;;;;;18.00;60.15;98944.38;4300983;33;21110;-93
2022/09/16 04:40:29;;;;;;;;;;;;;;;18.15;60.16;98942.37;4329674;33;19975;-95
2022/09/16 04:43:04;;;;;;;;;;;;;;;18.06;60.16;98949.19;4337300;33;20037;-95
2022/09/16 05:50:28;;;;;;;;;;;;;;;18.80;60.20;98986.56;2102505;27;21292;-93
2022/09/16 05:52:53;;;;;;;;;;;;;;;18.92;60.20;98969.78;4380671;32;20003;-94
2022/09/16 05:55:18;;;;;;;;;;;;;;;18.92;60.21;98962.69;4381345;32;20018;-93
2022/09/16 05:57:44;;;;;;;;;;;;;;;18.96;60.21;98958.88;4381022;32;20229;-93
2022/09/16 06:00:09;;;;;;;;;;;;;;;19.05;60.21;98964.37;4381410;32;19998;-94
2022/09/16 06:02:34;;;;;;;;;;;;;;;19.15;60.21;98968.78;4381727;32;19990;-93
2022/09/16 06:05:00;;;;;;;;;;;;;;;19.19;60.22;98972.87;4383656;32;19994;-94
2022/09/16 06:07:25;;;;;;;;;;;;;;;19.11;60.22;98970.00;4387548;32;19990;-93
2022/09/16 06:09:51;;;;;;;;;;;;;;;18.99;60.20;98971.00;4388943;32;19988;-93
2022/09/16 06:12:19;;;;;;;;;;;;;;;18.92;60.20;98969.78;4383063;32;19987;-94
2022/09/16 06:14:44;;;;;;;;;;;;;;;19.02;60.21;98974.22;4381206;32;19994;-94
2022/09/16 06:17:10;;;;;;;;;;;;;;;19.13;60.22;98976.00;4389278;32;20385;-86
2022/09/16 06:19:35;;;;;;;;;;;;;;;19.37;60.22;98973.19;4407995;32;20660;-87
2022/09/16 06:22:00;;;;;;;;;;;;;;;19.43;60.23;98978.00;4400993;32;20050;-88
2022/09/16 06:24:25;;;;;;;;;;;;;;;19.43;60.23;98983.28;4377990;32;19982;-87
2022/09/16 06:26:51;;;;;;;;;;;;;;;19.37;60.22;98980.28;4396338;32;19983;-89
2022/09/16 06:29:17;;;;;;;;;;;;;;;19.39;60.22;98978.34;4381023;32;19975;-89
2022/09/16 06:31:42;;;;;;;;;;;;;;;19.26;60.22;98974.06;4394346;32;19987;-89
2022/09/16 06:34:09;;;;;;;;;;;;;;;19.37;60.22;98975.00;4394370;32;20382;-89
2022/09/16 06:36:35;;;;;;;;;;;;;;;19.41;60.24;98971.16;4393795;32;19997;-86
2022/09/16 06:39:00;;;;;;;;;;;;;;;19.55;60.24;98968.25;4407829;32;19974;-87
2022/09/16 06:41:26;;;;;;;;;;;;;;;19.74;60.24;98971.09;4407796;32;19994;-88
2022/09/16 06:43:51;;;;;;;;;;;;;;;19.60;60.24;98969.56;4407689;32;19967;-87
2022/09/16 06:46:20;;;;;;;;;;;;;;;19.27;60.22;98969.63;4380902;32;19982;-87
2022/09/16 06:48:51;;;;;;;;;;;;;;;19.41;60.23;98977.28;4408275;32;19982;-93
2022/09/16 06:51:18;;;;;;;;;;;;;;;19.37;60.22;98972.34;4385951;32;19978;-86
2022/09/16 06:53:43;;;;;;;;;;;;;;;19.50;60.23;98979.16;4378447;32;20008;-86
2022/09/16 06:56:11;;;;;;;;;;;;;;;19.26;60.22;98976.72;4379945;32;19978;-87
2022/09/16 06:58:36;;;;;;;;;;;;;;;19.26;60.22;98973.22;4379587;32;20308;-86
2022/09/16 07:01:08;;;;;;;;;;;;;;;19.22;60.22;98975.28;4379868;32;20085;-87
2022/09/16 07:03:40;;;;;;;;;;;;;;;19.26;60.22;98981.97;4394114;32;20046;-87
2022/09/16 07:06:05;;;;;;;;;;;;;;;19.15;60.21;98981.97;4380289;32;20021;-87
2022/09/16 07:08:31;;;;;;;;;;;;;;;19.23;60.21;98984.88;4393256;32;20002;-87
2022/09/16 07:11:00;;;;;;;;;;;;;;;19.07;60.21;98986.19;4379520;32;20054;-87
2022/09/16 07:13:25;;;;;;;;;;;;;;;19.19;60.22;98991.34;4379680;32;20018;-88
2022/09/16 07:15:50;;;;;;;;;;;;;;;19.35;60.23;98992.75;4379641;32;20025;-87
2022/09/16 07:18:16;;;;;;;;;;;;;;;19.39;60.22;99002.09;4393522;32;19971;-88
2022/09/16 07:20:41;;;;;;;;;;;;;;;19.49;60.24;98995.97;4393489;32;20272;-87
2022/09/16 07:23:06;;;;;;;;;;;;;;;19.59;60.24;99007.47;4367341;32;20014;-86
2022/09/16 07:25:32;;;;;;;;;;;;;;;19.74;60.24;99001.94;4379228;32;30134;-87
2022/09/16 07:27:57;;;;;;;;;;;;;;;19.74;60.24;99010.69;4379776;32;19998;-87
2022/09/16 07:30:22;;;;;;;;;;;;;;;19.79;60.25;99011.16;4380866;32;25905;-89
2022/09/16 07:32:47;;;;;;;;;;;;;;;19.79;60.25;99013.78;4381933;32;20013;-87
2022/09/16 07:35:12;;;;;;;;;;;;;;;19.95;60.26;99009.91;4384470;32;19997;-89
2022/09/16 07:37:38;;;;;;;;;;;;;;;20.06;60.26;99010.69;4402542;32;19996;-89
2022/09/16 07:40:04;;;;;;;;;;;;;;;19.82;60.25;99012.69;4420344;32;19982;-85
2022/09/16 07:42:29;;;;;;;;;;;;;;;19.80;60.25;99012.81;4399263;32;20050;-91
2022/09/16 07:44:54;;;;;;;;;;;;;;;19.86;60.26;99024.69;4383201;32;19990;-87
2022/09/16 07:47:19;;;;;;;;;;;;;;;20.12;60.27;99019.94;4409199;32;20081;-85
2022/09/16 07:49:45;;;;;;;;;;;;;;;20.18;60.28;99022.06;4409628;32;19994;-85
2022/09/16 07:52:10;;;;;;;;;;;;;;;20.15;60.26;99031.09;4383473;32;20383;-87
2022/09/16 07:54:36;;;;;;;;;;;;;;;20.05;60.27;99035.44;4409912;32;19982;-87
2022/09/16 07:57:01;;;;;;;;;;;;;;;20.13;60.27;99032.19;4395441;32;19966;-86
2022/09/16 07:59:26;;;;;;;;;;;;;;;19.84;60.25;99035.38;4408890;32;19990;-86
2022/09/16 08:01:51;;;;;;;;;;;;;;;19.72;60.25;99033.75;4408899;32;20324;-88
2022/09/16 08:04:17;;;;;;;;;;;;;;;19.72;60.25;99039.03;4393943;32;20026;-86
2022/09/16 08:06:42;;;;;;;;;;;;;;;19.74;60.25;99036.25;4408875;32;19978;-87
2022/09/16 08:09:07;;;;;;;;;;;;;;;19.85;60.25;99038.84;4409004;32;20359;-87
2022/09/16 08:11:33;;;;;;;;;;;;;;;19.81;60.26;99038.28;4408572;32;20020;-86
2022/09/16 08:13:58;;;;;;;;;;;;;;;19.69;60.24;99044.56;4394657;32;20295;-87
2022/09/16 08:16:24;;;;;;;;;;;;;;;19.74;60.25;99046.81;4394944;32;19990;-87
2022/09/16 08:18:49;;;;;;;;;;;;;;;19.79;60.25;99040.19;4408762;32;19990;-87
2022/09/16 08:21:15;;;;;;;;;;;;;;;19.86;60.26;99037.91;4394887;32;20040;-87
2022/09/16 08:23:41;;;;;;;;;;;;;;;19.74;60.25;99042.38;4394952;32;19974;-88
2022/09/16 08:26:15;;;;;;;;;;;;;;;19.92;60.26;99040.06;4391693;32;20045;-87
2022/09/16 08:28:41;;;;;;;;;;;;;;;19.78;60.26;99030.59;4396635;32;19978;-88
2022/09/16 08:31:06;;;;;;;;;;;;;;;19.76;60.25;99035.16;4382607;32;20012;-85
2022/09/16 08:33:31;;;;;;;;;;;;;;;19.77;60.25;99030.72;4407711;32;19984;-87
2022/09/16 08:35:56;;;;;;;;;;;;;;;19.84;60.25;99032.75;4393930;32;20260;-87
2022/09/16 08:38:21;;;;;;;;;;;;;;;20.04;60.27;99031.09;4409568;32;19974;-86
2022/09/16 08:40:47;;;;;;;;;;;;;;;20.10;60.27;99035.88;4395688;32;20253;-86
2022/09/16 08:43:20;;;;;;;;;;;;;;;20.16;60.27;99039.84;4395181;32;19978;-87
2022/09/16 08:45:45;;;;;;;;;;;;;;;20.32;60.28;99042.03;4395962;32;19978;-85
2022/09/16 08:48:18;;;;;;;;;;;;;;;20.29;60.28;99040.47;4409356;32;20001;-86
2022/09/16 08:50:43;;;;;;;;;;;;;;;20.17;60.28;99029.16;4395634;32;20013;-86
2022/09/16 08:53:30;;;;;;;;;;;;;;;20.23;60.29;99027.78;4383083;32;20006;-86
2022/09/16 08:55:55;;;;;;;;;;;;;;;20.14;60.27;99033.84;4383542;32;20096;-87
2022/09/16 08:58:24;;;;;;;;;;;;;;;20.06;60.27;99047.66;4395409;32;20361;-88
2022/09/16 09:00:57;;;;;;;;;;;;;;;20.02;60.27;99059.47;4383612;32;19993;-86
2022/09/16 09:03:36;;;;;;;;;;;;;;;20.13;60.27;99059.44;4410374;32;20349;-88
2022/09/16 09:06:02;;;;;;;;;;;;;;;20.08;60.27;99061.59;4411012;32;19975;-88
2022/09/16 09:08:42;;;;;;;;;;;;;;;19.96;60.26;99059.97;4414691;32;19962;-90
2022/09/16 09:11:16;;;;;;;;;;;;;;;20.13;60.27;99048.87;4405182;32;20025;-87
2022/09/16 09:14:00;;;;;;;;;;;;;;;20.11;60.27;99049.94;4396096;32;20121;-88
2022/09/16 09:16:25;;;;;;;;;;;;;;;20.24;60.29;99038.22;4409057;32;19982;-88
2022/09/16 09:18:57;;;;;;;;;;;;;;;20.26;60.28;99032.81;4408789;32;19982;-89
2022/09/16 09:21:40;;;;;;;;;;;;;;;20.47;60.30;99033.69;4409089;32;20332;-89
2022/09/16 09:24:11;;;;;;;;;;;;;;;20.42;60.29;99030.63;4409582;32;20044;-89
2022/09/16 09:26:41;;;;;;;;;;;;;;;20.39;60.28;99022.06;4409238;32;20006;-88
2022/09/16 09:29:20;;;;;;;;;;;;;;;20.45;60.29;99024.22;4394781;32;20314;-89
2022/09/16 09:31:46;;;;;;;;;;;;;;;20.43;60.29;99029.62;4395160;32;20036;-88
2022/09/16 09:34:28;;;;;;;;;;;;;;;20.50;60.30;99029.97;4409054;32;19981;-88
2022/09/16 09:36:56;;;;;;;;;;;;;;;20.46;60.29;99028.53;4408809;32;19978;-88
2022/09/16 09:39:24;;;;;;;;;;;;;;;20.57;60.29;99033.75;4409084;32;20404;-90
2022/09/16 09:42:10;;;;;;;;;;;;;;;20.58;60.29;99037.22;4382746;32;19990;-85
2022/09/16 09:44:35;;;;;;;;;;;;;;;20.87;60.31;99038.25;4408823;32;19974;-86
2022/09/16 09:47:02;;;;;;;;;;;;;;;20.91;60.31;99044.97;4409129;32;19988;-85
2022/09/16 09:49:30;;;;;;;;;;;;;;;20.93;60.31;99036.88;4382530;32;20028;-87
2022/09/16 09:51:59;;;;;;;;;;;;;;;21.06;60.32;99027.78;4408980;32;19998;-84
2022/09/16 09:54:24;;;;;;;;;;;;;;;21.12;60.33;99021.09;4394973;32;20080;-86
2022/09/16 09:56:53;;;;;;;;;;;;;;;21.03;60.32;99019.22;4408602;32;20036;-85
2022/09/16 09:59:21;;;;;;;;;;;;;;;21.06;60.32;99009.25;4394812;32;19990;-86
2022/09/16 10:01:51;;;;;;;;;;;;;;;21.23;60.33;98996.34;4408794;32;19986;-85
2022/09/16 10:04:17;;;;;;;;;;;;;;;21.31;60.33;98994.72;4394746;32;20028;-86
2022/09/16 10:06:42;;;;;;;;;;;;;;;21.41;60.35;98997.41;4406721;32;19974;-84
2022/09/16 10:09:07;;;;;;;;;;;;;;;21.45;60.34;99006.72;4393813;32;34313;-85
2022/09/16 10:11:33;;;;;;;;;;;;;;;21.33;60.34;99002.53;4393924;32;20018;-84
2022/09/16 10:13:59;;;;;;;;;;;;;;;21.44;60.34;99005.91;4394114;32;20014;-85
2022/09/16 10:16:28;;;;;;;;;;;;;;;21.32;60.34;99011.47;4394687;32;20319;-85
2022/09/16 10:18:59;;;;;;;;;;;;;;;21.10;60.33;99013.31;4394392;32;20036;-84
2022/09/16 10:21:24;;;;;;;;;;;;;;;21.02;60.31;99014.91;4394816;32;19990;-85
2022/09/16 10:23:53;;;;;;;;;;;;;;;21.29;60.33;99009.06;4393700;32;36031;-86
2022/09/16 10:26:23;;;;;;;;;;;;;;;21.26;60.33;99012.81;4394602;32;19996;-87
2022/09/16 10:29:11;;;;;;;;;;;;;;;21.39;60.34;99012.59;4409016;32;20048;-88
2022/09/16 10:31:36;;;;;;;;;;;;;;;21.50;60.35;99008.97;4409628;32;20040;-86
2022/09/16 10:34:02;;;;;;;;;;;;;;;21.58;60.35;99003.84;4383781;32;19986;-86
2022/09/16 10:36:28;;;;;;;;;;;;;;;21.60;60.35;99007.19;4397064;32;19997;-85
2022/09/16 10:38:54;;;;;;;;;;;;;;;21.56;60.34;99006.62;4396928;32;20054;-85
2022/09/16 10:41:21;;;;;;;;;;;;;;;21.55;60.35;98998.84;4395049;32;19959;-89
2022/09/16 10:43:47;;;;;;;;;;;;;;;21.54;60.34;99005.09;4400222;32;20271;-86
2022/09/16 10:46:13;;;;;;;;;;;;;;;21.58;60.36;99004.69;4396118;32;19982;-87
2022/09/16 10:48:39;;;;;;;;;;;;;;;21.32;60.33;99006.16;4396012;32;19979;-87
2022/09/16 10:51:05;;;;;;;;;;;;;;;21.15;60.33;99010.25;4395665;32;19998;-86
2022/09/16 10:53:30;;;;;;;;;;;;;;;21.23;60.33;99014.84;4395775;32;20004;-84
2022/09/16 10:55:59;;;;;;;;;;;;;;;21.27;60.34;99022.44;4409056;32;20008;-86
2022/09/16 10:58:24;;;;;;;;;;;;;;;21.48;60.35;99019.69;4382807;32;20021;-87
2022/09/16 11:00:55;;;;;;;;;;;;;;;21.64;60.36;99016.53;4408809;32;19974;-85
2022/09/16 11:03:26;;;;;;;;;;;;;;;21.68;60.36;99023.22;4396016;32;19966;-86
2022/09/16 11:05:56;;;;;;;;;;;;;;;21.98;60.37;99020.47;4396163;32;20097;-85
2022/09/16 11:08:41;;;;;;;;;;;;;;;22.20;60.39;99018.53;4397024;32;19978;-88
2022/09/16 11:11:25;;;;;;;;;;;;;;;22.21;60.39;99021.06;4398504;32;20055;-86
2022/09/16 11:14:06;;;;;;;;;;;;;;;22.36;60.40;99013.50;4396880;32;20347;-85
2022/09/16 11:16:50;;;;;;;;;;;;;;;22.57;60.41;99006.22;4395834;32;20018;-86
2022/09/16 11:19:37;;;;;;;;;;;;;;;22.84;60.42;99008.13;4409850;32;20001;-88
2022/09/16 11:22:04;;;;;;;;;;;;;;;22.98;60.43;99003.34;4409693;32;19982;-85
2022/09/16 11:24:48;;;;;;;;;;;;;;;23.11;60.43;99003.81;4383517;32;20311;-86
2022/09/16 11:27:20;;;;;;;;;;;;;;;23.30;60.44;98993.13;4395899;32;20022;-86
2022/09/16 11:29:48;;;;;;;;;;;;;;;23.23;60.44;98986.75;4382162;32;20008;-86
2022/09/16 11:32:22;;;;;;;;;;;;;;;23.45;60.45;98981.00;4394300;32;20369;-82
2022/09/16 11:34:48;;;;;;;;;;;;;;;23.61;60.46;98985.69;4395385;32;20323;-89
2022/09/16 11:37:16;;;;;;;;;;;;;;;23.80;60.47;98984.72;4395602;32;19985;-88
2022/09/16 11:40:00;;;;;;;;;;;;;;;23.84;60.47;98980.75;4395351;32;20021;-86
2022/09/16 11:42:28;;;;;;;;;;;;;;;24.02;60.48;98978.94;4409097;32;19982;-88
2022/09/16 11:45:07;;;;;;;;;;;;;;;24.04;60.48;98973.47;4395837;32;20032;-88
2022/09/16 11:47:41;;;;;;;;;;;;;;;24.14;60.49;98969.75;4395942;32;19998;-86
2022/09/16 11:50:14;;;;;;;;;;;;;;;24.20;60.48;98970.94;4409810;32;19982;-87
2022/09/16 11:52:39;;;;;;;;;;;;;;;24.32;60.50;98971.53;4409853;32;19998;-87
2022/09/16 11:55:05;;;;;;;;;;;;;;;24.32;60.50;98966.22;4409689;32;19986;-88
2022/09/16 11:57:32;;;;;;;;;;;;;;;24.07;60.49;98959.84;4395836;32;20322;-85
2022/09/16 12:00:15;;;;;;;;;;;;;;;24.03;60.48;98959.34;4396358;32;19971;-88
2022/09/16 12:02:59;;;;;;;;;;;;;;;23.81;60.47;98970.44;4396707;32;20009;-88
2022/09/16 12:05:37;;;;;;;;;;;;;;;23.69;60.47;98972.50;4410660;32;20035;-87
2022/09/16 12:08:02;;;;;;;;;;;;;;;23.74;60.46;98961.41;4397636;32;19974;-86
2022/09/16 12:10:40;;;;;;;;;;;;;;;23.65;60.46;98956.97;4397750;32;20251;-84
2022/09/16 12:13:07;;;;;;;;;;;;;;;23.68;60.47;98956.72;4417635;32;19962;-86
2022/09/16 12:15:34;;;;;;;;;;;;;;;23.79;60.47;98961.78;4400820;32;19966;-84
2022/09/16 12:18:07;;;;;;;;;;;;;;;23.84;60.48;98962.16;4409879;32;19978;-91
2022/09/16 12:20:33;;;;;;;;;;;;;;;23.89;60.49;98958.03;4382983;32;19990;-90
2022/09/16 12:23:19;;;;;;;;;;;;;;;24.11;60.49;98959.38;4395806;32;20044;-86
2022/09/16 12:25:47;;;;;;;;;;;;;;;24.20;60.50;98957.66;4409645;32;19985;-88
2022/09/16 12:28:15;;;;;;;;;;;;;;;24.23;60.50;98948.53;4395598;32;20321;-85
2022/09/16 12:30:48;;;;;;;;;;;;;;;24.24;60.50;98948.38;4395768;32;20061;-86
2022/09/16 12:33:20;;;;;;;;;;;;;;;24.16;60.49;98953.62;4395976;32;19993;-85
2022/09/16 12:35:56;;;;;;;;;;;;;;;24.18;60.49;98960.47;4395770;32;19988;-85
2022/09/16 12:38:21;;;;;;;;;;;;;;;24.33;60.50;98957.25;4395556;32;20425;-86
2022/09/16 12:41:09;;;;;;;;;;;;;;;24.38;60.51;98941.69;4409554;32;20016;-85
2022/09/16 12:43:50;;;;;;;;;;;;;;;24.32;60.50;98936.97;4395800;32;20013;-85
2022/09/16 12:46:27;;;;;;;;;;;;;;;24.43;60.50;98936.72;4409531;32;20422;-86
2022/09/16 12:49:10;;;;;;;;;;;;;;;24.25;60.50;98931.41;4395833;32;19955;-85
2022/09/16 12:51:46;;;;;;;;;;;;;;;24.28;60.50;98931.12;4408890;32;19997;-84
2022/09/16 12:54:12;;;;;;;;;;;;;;;24.32;60.50;98923.66;4395781;32;19998;-85
2022/09/16 12:56:37;;;;;;;;;;;;;;;24.30;60.51;98920.34;4409595;32;19989;-84
2022/09/16 12:59:14;;;;;;;;;;;;;;;24.25;60.50;98923.44;4409718;32;19997;-85
2022/09/16 13:01:50;;;;;;;;;;;;;;;24.33;60.50;98922.69;4409546;32;20022;-85
2022/09/16 13:04:16;;;;;;;;;;;;;;;24.44;60.50;98917.13;4395863;32;19990;-85
2022/09/16 13:06:51;;;;;;;;;;;;;;;24.40;60.51;98919.25;4395930;32;19974;-85
2022/09/16 13:09:23;;;;;;;;;;;;;;;24.52;60.51;98908.34;4383424;32;20009;-85
2022/09/16 13:12:15;;;;;;;;;;;;;;;24.45;60.51;98908.12;4395956;32;20012;-84
2022/09/16 13:14:44;;;;;;;;;;;;;;;24.47;60.51;98912.31;4406736;32;20315;-86
2022/09/16 13:17:09;;;;;;;;;;;;;;;24.42;60.51;98914.59;4395702;32;19978;-87
2022/09/16 13:19:45;;;;;;;;;;;;;;;24.47;60.52;98911.47;4395853;32;20018;-87
2022/09/16 13:22:13;;;;;;;;;;;;;;;24.51;60.51;98911.97;4395654;32;20331;-86
2022/09/16 13:24:39;;;;;;;;;;;;;;;24.43;60.51;98912.78;4395516;32;20041;-86
2022/09/16 13:27:23;;;;;;;;;;;;;;;24.25;60.50;98920.78;4383161;32;19992;-86
2022/09/16 13:29:48;;;;;;;;;;;;;;;24.12;60.50;98915.84;4396952;32;19971;-86
2022/09/16 13:32:46;;;;;;;;;;;;;;;24.16;60.49;98914.56;4396209;32;19988;-85
2022/09/16 13:35:17;;;;;;;;;;;;;;;24.22;60.50;98905.13;4383574;32;19997;-86
2022/09/16 13:37:46;;;;;;;;;;;;;;;24.07;60.49;98917.31;4409931;32;19978;-85
2022/09/16 13:40:22;;;;;;;;;;;;;;;24.08;60.50;98909.19;4396502;32;19998;-84
2022/09/16 13:42:48;;;;;;;;;;;;;;;24.20;60.51;98904.47;4398171;32;19982;-85
2022/09/16 13:45:39;;;;;;;;;;;;;;;24.18;60.49;98907.28;4421155;32;19989;-86
2022/09/16 13:48:08;;;;;;;;;;;;;;;24.19;60.49;98906.28;4407420;32;20046;-85
2022/09/16 13:50:35;;;;;;;;;;;;;;;24.17;60.50;98900.28;4395217;32;20009;-86
2022/09/16 13:53:07;;;;;;;;;;;;;;;24.26;60.50;98892.34;4395156;32;19982;-85
2022/09/16 13:55:32;;;;;;;;;;;;;;;24.31;60.51;98882.09;4409073;32;20033;-85
2022/09/16 13:58:02;;;;;;;;;;;;;;;24.08;60.49;98879.94;4394401;32;26164;-86
2022/09/16 14:00:33;;;;;;;;;;;;;;;24.13;60.50;98890.97;4382404;32;19978;-85
2022/09/16 14:02:58;;;;;;;;;;;;;;;24.01;60.49;98880.72;4393943;32;19990;-87
2022/09/16 14:05:41;;;;;;;;;;;;;;;23.82;60.48;98876.44;4408148;32;19973;-88
2022/09/16 14:08:10;;;;;;;;;;;;;;;23.96;60.48;98869.72;4408718;32;20028;-87
2022/09/16 14:10:38;;;;;;;;;;;;;;;23.87;60.48;98876.78;4408712;32;20452;-86
2022/09/16 14:13:10;;;;;;;;;;;;;;;24.01;60.49;98865.59;4408792;32;20396;-86
2022/09/16 14:15:36;;;;;;;;;;;;;;;24.11;60.49;98866.31;4395033;32;19990;-86
2022/09/16 14:18:01;;;;;;;;;;;;;;;24.07;60.49;98872.94;4408315;32;19989;-85
2022/09/16 14:20:27;;;;;;;;;;;;;;;24.00;60.49;98874.56;4394752;32;20019;-87
2022/09/16 14:23:02;;;;;;;;;;;;;;;24.01;60.49;98870.09;4394332;32;33038;-86
2022/09/16 14:25:27;;;;;;;;;;;;;;;23.71;60.47;98877.53;4395082;32;20013;-85
2022/09/16 14:28:05;;;;;;;;;;;;;;;23.60;60.47;98879.56;4408803;32;20002;-86
2022/09/16 14:30:30;;;;;;;;;;;;;;;23.44;60.47;98878.41;4394773;32;19992;-89
2022/09/16 14:32:56;;;;;;;;;;;;;;;23.47;60.46;98874.63;4382353;32;20252;-88
2022/09/16 14:35:22;;;;;;;;;;;;;;;23.44;60.46;98885.56;4408486;32;19982;-88
2022/09/16 14:37:48;;;;;;;;;;;;;;;23.28;60.46;98895.00;4394707;32;19983;-88
2022/09/16 14:40:14;;;;;;;;;;;;;;;23.24;60.45;98879.53;4408541;32;19994;-87
2022/09/16 14:42:58;;;;;;;;;;;;;;;23.09;60.44;98870.41;4394702;32;20683;-88
2022/09/16 14:45:23;;;;;;;;;;;;;;;23.05;60.44;98871.69;4408458;32;20037;-87
2022/09/16 14:47:48;;;;;;;;;;;;;;;22.98;60.44;98860.84;4381694;32;31760;-87
2022/09/16 14:50:14;;;;;;;;;;;;;;;22.96;60.44;98861.00;4407729;32;33714;-87
2022/09/16 14:52:39;;;;;;;;;;;;;;;22.88;60.44;98860.91;4408705;32;19978;-85
2022/09/16 14:55:17;;;;;;;;;;;;;;;22.89;60.43;98861.72;4408817;32;20000;-86
2022/09/16 14:57:43;;;;;;;;;;;;;;;22.71;60.42;98856.34;4382203;32;19986;-85
2022/09/16 15:00:11;;;;;;;;;;;;;;;22.71;60.42;98859.00;4408678;32;20522;-86
2022/09/16 15:02:41;;;;;;;;;;;;;;;22.69;60.42;98845.03;4394595;32;20221;-86
2022/09/16 15:05:26;;;;;;;;;;;;;;;22.64;60.43;98845.50;4381810;32;20002;-83
2022/09/16 15:07:52;;;;;;;;;;;;;;;22.56;60.42;98845.41;4394488;32;19979;-87
2022/09/16 15:10:21;;;;;;;;;;;;;;;22.60;60.42;98857.37;4394584;32;19985;-85
2022/09/16 15:12:48;;;;;;;;;;;;;;;22.40;60.42;98861.09;4394711;32;20009;-87
2022/09/16 15:15:19;;;;;;;;;;;;;;;22.36;60.41;98857.06;4399646;32;19982;-86
2022/09/16 15:17:50;;;;;;;;;;;;;;;22.34;60.41;98861.69;4393890;32;19993;-86
2022/09/16 15:20:22;;;;;;;;;;;;;;;22.16;60.39;98869.56;4410594;32;20081;-85
2022/09/16 15:22:48;;;;;;;;;;;;;;;22.18;60.39;98867.59;4396829;32;19991;-87
2022/09/16 15:25:19;;;;;;;;;;;;;;;21.73;60.37;98860.25;4409658;32;21576;-85
2022/09/16 15:27:44;;;;;;;;;;;;;;;21.62;60.38;98871.00;4396338;32;19974;-86
2022/09/16 15:30:19;;;;;;;;;;;;;;;21.53;60.36;98878.94;4395829;32;27377;-88